createdAt,value
2019-05-12T00:01:33.924Z,1.37
2019-05-12T00:04:08.194Z,1.92
2019-05-12T00:06:42.121Z,2.62
2019-05-12T00:09:18.786Z,2.87
2019-05-12T00:11:51.603Z,1.55
2019-05-12T00:14:24.462Z,1.30
2019-05-12T00:16:58.092Z,2.10
2019-05-12T00:19:31.455Z,1.67
2019-05-12T00:22:03.512Z,0.62
2019-05-12T00:24:35.655Z,1.17
2019-05-12T00:27:11.797Z,1.65
2019-05-12T00:29:44.845Z,1.45
2019-05-12T00:32:18.042Z,2.12
2019-05-12T00:37:21.203Z,3.95
2019-05-12T00:39:53.309Z,2.22
2019-05-12T00:42:26.053Z,1.60
2019-05-12T00:44:58.837Z,1.52
2019-05-12T00:47:31.255Z,1.05
2019-05-12T00:50:04.132Z,0.88
2019-05-12T00:52:38.565Z,4.35
2019-05-12T00:55:11.147Z,3.05
2019-05-12T00:57:43.539Z,0.82
2019-05-12T01:00:17.894Z,1.57
2019-05-12T01:02:51.123Z,1.35
2019-05-12T01:05:23.490Z,2.75
2019-05-12T01:07:58.226Z,1.05
2019-05-12T01:10:30.281Z,1.57
2019-05-12T01:13:03.031Z,2.35
2019-05-12T01:15:37.766Z,2.47
2019-05-12T01:18:11.557Z,1.22
2019-05-12T01:20:44.674Z,2.60
2019-05-12T01:23:19.293Z,1.12
2019-05-12T01:25:51.437Z,2.90
2019-05-12T01:28:24.127Z,2.67
2019-05-12T01:30:58.948Z,0.88
2019-05-12T01:33:31.342Z,1.60
2019-05-12T01:36:04.050Z,1.42
2019-05-12T01:38:37.911Z,1.90
2019-05-12T01:41:11.027Z,3.98
2019-05-12T01:43:43.747Z,0.95
2019-05-12T01:46:18.109Z,1.92
2019-05-12T01:48:51.153Z,2.33
2019-05-12T01:51:23.802Z,1.37
2019-05-12T01:54:08.591Z,1.22
2019-05-12T01:56:30.787Z,1.57
2019-05-12T01:59:03.463Z,1.35
2019-05-12T02:01:38.622Z,1.57
2019-05-12T02:04:10.353Z,1.72
2019-05-12T02:06:42.892Z,2.12
2019-05-12T02:09:18.673Z,2.05
2019-05-12T02:11:51.224Z,1.22
2019-05-12T02:14:23.860Z,1.42
2019-05-12T02:16:58.188Z,1.65
2019-05-12T02:19:30.655Z,1.35
2019-05-12T02:22:03.509Z,2.33
2019-05-12T02:24:35.610Z,1.52
2019-05-12T02:27:08.367Z,6.05
2019-05-12T02:29:41.387Z,3.35
2019-05-12T02:32:14.324Z,1.75
2019-05-12T02:34:46.682Z,2.05
2019-05-12T02:37:18.809Z,2.05
2019-05-12T02:39:55.320Z,1.22
2019-05-12T02:42:26.679Z,1.45
2019-05-12T02:44:59.149Z,1.22
2019-05-12T02:47:34.472Z,2.00
2019-05-12T02:50:07.805Z,1.55
2019-05-12T02:52:44.121Z,2.98
2019-05-12T02:55:15.421Z,2.50
2019-05-12T02:57:50.679Z,2.08
2019-05-12T03:00:26.087Z,1.67
2019-05-12T03:03:05.455Z,1.40
2019-05-12T03:05:40.338Z,2.15
2019-05-12T03:08:15.456Z,2.52
2019-05-12T03:10:54.641Z,1.30
2019-05-12T03:13:26.392Z,1.87
2019-05-12T03:15:58.861Z,1.62
2019-05-12T03:18:34.526Z,1.60
2019-05-12T03:21:05.903Z,1.95
2019-05-12T03:26:09.052Z,1.22
2019-05-12T03:28:44.614Z,1.55
2019-05-12T03:31:22.191Z,1.52
2019-05-12T03:33:54.146Z,1.20
2019-05-12T03:36:31.922Z,1.85
2019-05-12T03:39:00.465Z,1.17
2019-05-12T03:41:34.847Z,0.90
2019-05-12T03:44:07.565Z,3.75
2019-05-12T03:46:40.226Z,1.42
2019-05-12T03:49:15.081Z,2.27
2019-05-12T03:51:46.647Z,2.45
2019-05-12T03:54:19.043Z,1.60
2019-05-12T03:56:51.437Z,1.22
2019-05-12T03:59:25.602Z,1.27
2019-05-12T04:01:58.669Z,1.85
2019-05-12T04:04:30.763Z,1.37
2019-05-12T04:07:05.159Z,1.32
2019-05-12T04:09:38.542Z,2.37
2019-05-12T04:12:14.566Z,1.37
2019-05-12T04:14:45.713Z,4.17
2019-05-12T04:17:17.841Z,2.17
2019-05-12T04:19:50.574Z,2.75
2019-05-12T04:22:24.898Z,2.67
2019-05-12T04:24:57.981Z,1.72
2019-05-12T04:27:30.097Z,2.67
2019-05-12T04:30:05.507Z,3.02
2019-05-12T04:32:36.883Z,4.15
2019-05-12T04:35:09.401Z,1.65
2019-05-12T04:37:44.685Z,2.07
2019-05-12T04:40:16.328Z,2.98
2019-05-12T04:42:49.354Z,1.70
2019-05-12T04:45:25.222Z,1.20
2019-05-12T04:47:56.282Z,1.30
2019-05-12T04:50:28.683Z,4.40
2019-05-12T04:53:01.161Z,3.00
2019-05-12T04:55:35.608Z,1.50
2019-05-12T04:58:08.209Z,2.20
2019-05-12T05:00:40.645Z,3.02
2019-05-12T05:03:14.084Z,1.50
2019-05-12T05:05:47.499Z,2.27
2019-05-12T05:08:20.074Z,4.10
2019-05-12T05:10:54.786Z,3.92
2019-05-12T05:13:28.496Z,1.37
2019-05-12T05:16:00.884Z,1.35
2019-05-12T05:18:34.447Z,2.22
2019-05-12T05:21:07.673Z,1.82
2019-05-12T05:23:40.218Z,1.77
2019-05-12T05:26:23.902Z,1.30
2019-05-12T05:28:46.948Z,1.75
2019-05-12T05:31:20.166Z,1.80
2019-05-12T05:33:53.711Z,3.40
2019-05-12T05:36:27.550Z,1.30
2019-05-12T05:39:02.271Z,1.75
2019-05-12T05:41:35.134Z,1.52
2019-05-12T05:44:08.262Z,2.87
2019-05-12T05:49:13.791Z,1.65
2019-05-12T05:51:54.170Z,1.10
2019-05-12T05:54:22.666Z,4.15
2019-05-12T05:56:59.786Z,1.52
2019-05-12T05:59:31.809Z,1.40
2019-05-12T06:02:05.652Z,1.62
2019-05-12T06:04:43.842Z,5.45
2019-05-12T06:07:14.372Z,2.15
2019-05-12T06:09:46.871Z,2.00
2019-05-12T06:12:19.295Z,1.95
2019-05-12T06:14:57.685Z,3.05
2019-05-12T06:17:27.154Z,3.20
2019-05-12T06:19:59.552Z,4.58
2019-05-12T06:22:34.317Z,3.87
2019-05-12T06:25:06.835Z,4.85
2019-05-12T06:27:40.589Z,5.22
2019-05-12T06:30:14.754Z,4.20
2019-05-12T06:32:51.828Z,3.75
2019-05-12T06:35:24.053Z,6.87
2019-05-12T06:38:01.343Z,3.90
2019-05-12T06:40:39.796Z,6.25
2019-05-12T06:43:05.087Z,8.35
2019-05-12T06:45:42.455Z,7.10
2019-05-12T06:48:14.064Z,6.05
2019-05-12T06:50:46.644Z,6.42
2019-05-12T06:53:20.272Z,6.15
2019-05-12T06:55:54.144Z,10.63
2019-05-12T06:58:27.656Z,6.30
2019-05-12T07:01:02.393Z,5.15
2019-05-12T07:03:37.177Z,7.12
2019-05-12T07:06:09.072Z,5.70
2019-05-12T07:08:43.857Z,7.58
2019-05-12T07:14:01.017Z,7.05
2019-05-12T07:16:29.779Z,6.75
2019-05-12T07:18:57.290Z,9.13
2019-05-12T07:21:29.690Z,11.55
2019-05-12T07:24:09.120Z,6.17
2019-05-12T07:26:36.723Z,3.60
2019-05-12T07:29:09.447Z,5.28
2019-05-12T07:31:44.153Z,3.08
2019-05-12T07:34:16.937Z,6.40
2019-05-12T07:36:53.347Z,9.70
2019-05-12T07:39:28.469Z,8.23
2019-05-12T07:42:05.733Z,7.10
2019-05-12T07:44:42.176Z,9.98
2019-05-12T07:47:19.156Z,7.35
2019-05-12T07:49:49.902Z,4.00
2019-05-12T07:52:24.248Z,9.38
2019-05-12T07:54:57.454Z,6.40
2019-05-12T07:57:30.185Z,9.85
2019-05-12T08:00:03.838Z,3.87
2019-05-12T08:02:37.140Z,7.42
2019-05-12T08:05:11.121Z,6.17
2019-05-12T08:07:44.589Z,6.40
2019-05-12T08:10:20.031Z,6.45
2019-05-12T08:12:59.280Z,4.00
2019-05-12T08:15:26.166Z,2.80
2019-05-12T08:17:59.724Z,1.67
2019-05-12T08:20:34.259Z,5.83
2019-05-12T08:23:10.447Z,6.95
2019-05-12T08:25:43.639Z,7.08
2019-05-12T08:28:19.114Z,3.72
2019-05-12T08:30:52.714Z,8.15
2019-05-12T08:33:26.521Z,6.30
2019-05-12T08:36:03.173Z,8.98
2019-05-12T08:38:33.736Z,6.78
2019-05-12T08:41:06.106Z,5.12
2019-05-12T08:43:40.695Z,6.15
2019-05-12T08:48:17.161Z,3.30
2019-05-12T08:50:46.278Z,4.40
2019-05-12T08:53:20.871Z,4.83
2019-05-12T08:55:53.858Z,6.60
2019-05-12T08:58:33.894Z,5.00
2019-05-12T09:01:04.257Z,5.12
2019-05-12T09:03:36.718Z,4.15
2019-05-12T09:06:15.419Z,4.12
2019-05-12T09:08:49.348Z,5.60
2019-05-12T09:11:19.732Z,5.65
2019-05-12T09:14:00.453Z,8.30
2019-05-12T09:16:27.051Z,3.58
2019-05-12T09:19:00.137Z,6.90
2019-05-12T09:24:05.255Z,4.30
2019-05-12T09:26:37.765Z,4.90
2019-05-12T09:29:10.950Z,4.58
2019-05-12T09:31:44.119Z,3.58
2019-05-12T09:34:16.645Z,7.22
2019-05-12T09:36:51.879Z,5.90
2019-05-12T09:39:24.340Z,4.92
2019-05-12T09:41:56.635Z,3.12
2019-05-12T09:44:30.591Z,2.22
2019-05-12T09:47:04.373Z,5.05
2019-05-12T09:49:39.645Z,3.52
2019-05-12T09:52:13.941Z,3.62
2019-05-12T09:54:47.973Z,4.60
2019-05-12T09:57:23.815Z,3.22
2019-05-12T09:59:59.420Z,4.65
2019-05-12T10:02:30.969Z,3.55
2019-05-12T10:05:04.085Z,3.25
2019-05-12T10:07:36.898Z,4.40
2019-05-12T10:10:10.422Z,4.47
2019-05-12T10:12:46.472Z,3.02
2019-05-12T10:15:23.546Z,2.15
2019-05-12T10:17:53.994Z,3.85
2019-05-12T10:20:29.236Z,2.70
2019-05-12T10:23:04.050Z,6.75
2019-05-12T10:25:36.066Z,5.72
2019-05-12T10:28:11.687Z,5.42
2019-05-12T10:30:47.067Z,4.20
2019-05-12T10:33:18.285Z,4.37
2019-05-12T10:35:50.409Z,4.42
2019-05-12T10:38:24.160Z,2.65
2019-05-12T10:40:57.102Z,3.57
2019-05-12T10:43:29.897Z,2.30
2019-05-12T10:46:04.193Z,3.77
2019-05-12T10:48:36.786Z,2.63
2019-05-12T10:51:09.563Z,5.80
2019-05-12T10:53:43.245Z,2.35
2019-05-12T10:56:16.220Z,2.83
2019-05-12T11:01:19.583Z,4.33
2019-05-12T11:03:52.788Z,1.20
2019-05-12T11:06:25.541Z,1.20
2019-05-12T11:08:58.304Z,4.12
2019-05-12T11:11:32.992Z,3.08
2019-05-12T11:14:05.183Z,3.60
2019-05-12T11:16:38.027Z,5.47
2019-05-12T11:21:44.316Z,3.80
2019-05-12T11:24:16.991Z,2.87
2019-05-12T11:26:49.670Z,2.58
2019-05-12T11:29:23.509Z,4.73
2019-05-12T11:31:56.215Z,4.00
2019-05-12T11:34:29.350Z,1.95
2019-05-12T11:37:03.408Z,2.62
2019-05-12T11:39:40.301Z,3.80
2019-05-12T11:42:10.196Z,3.77
2019-05-12T11:44:44.260Z,3.62
2019-05-12T11:47:24.058Z,2.17
2019-05-12T11:49:53.535Z,1.27
2019-05-12T11:52:25.237Z,3.13
2019-05-12T11:54:57.749Z,2.33
2019-05-12T11:57:30.843Z,3.70
2019-05-12T12:00:05.382Z,2.83
2019-05-12T12:02:37.534Z,2.15
2019-05-12T12:05:10.340Z,2.90
2019-05-12T12:10:15.579Z,2.77
2019-05-12T12:20:25.707Z,1.53
2019-05-12T12:23:00.096Z,2.02
2019-05-12T12:25:34.143Z,2.67
2019-05-12T12:28:06.710Z,3.52
2019-05-12T12:30:39.034Z,2.90
2019-05-12T12:33:14.117Z,2.10
2019-05-12T12:35:50.577Z,0.90
2019-05-12T12:38:20.760Z,1.07
2019-05-12T12:40:53.740Z,1.20
2019-05-12T12:43:26.152Z,5.50
2019-05-12T12:46:03.386Z,1.57
2019-05-12T12:48:35.978Z,1.92
2019-05-12T12:51:09.937Z,1.15
2019-05-12T12:53:43.737Z,4.78
2019-05-12T12:56:27.529Z,1.35
2019-05-12T12:58:51.597Z,1.17
2019-05-12T13:01:28.651Z,1.30
2019-05-12T13:03:59.283Z,1.75
2019-05-12T13:06:34.591Z,1.90
2019-05-12T13:09:18.316Z,1.43
2019-05-12T13:11:44.455Z,1.60
2019-05-12T13:14:17.672Z,1.90
2019-05-12T13:16:54.694Z,2.03
2019-05-12T13:19:24.812Z,3.00
2019-05-12T13:21:57.654Z,2.83
2019-05-12T13:24:30.132Z,1.90
2019-05-12T13:27:03.638Z,2.22
2019-05-12T13:29:39.722Z,1.22
2019-05-12T13:32:09.692Z,2.22
2019-05-12T13:34:43.102Z,2.27
2019-05-12T13:37:19.325Z,0.70
2019-05-12T13:39:56.828Z,0.80
2019-05-12T13:42:24.387Z,1.57
2019-05-12T13:44:56.823Z,2.47
2019-05-12T13:47:34.048Z,0.80
2019-05-12T13:50:04.023Z,3.13
2019-05-12T13:52:36.801Z,2.70
2019-05-12T13:57:46.685Z,1.02
2019-05-12T14:00:14.989Z,1.40
2019-05-12T14:02:49.033Z,1.10
2019-05-12T14:05:24.145Z,1.07
2019-05-12T14:07:57.411Z,1.07
2019-05-12T14:10:30.162Z,2.03
2019-05-12T14:15:35.631Z,2.95
2019-05-12T14:18:10.336Z,1.10
2019-05-12T14:20:44.900Z,2.27
2019-05-12T14:23:16.538Z,0.80
2019-05-12T14:25:49.101Z,0.98
2019-05-12T14:28:23.395Z,0.87
2019-05-12T14:30:56.243Z,1.20
2019-05-12T14:36:00.960Z,1.45
2019-05-12T14:38:33.869Z,3.20
2019-05-12T14:41:10.351Z,1.50
2019-05-12T14:43:41.339Z,1.03
2019-05-12T14:46:14.816Z,1.77
2019-05-12T14:48:50.497Z,2.10
2019-05-12T14:51:24.410Z,0.90
2019-05-12T14:53:56.611Z,1.23
2019-05-12T14:56:30.162Z,1.30
2019-05-12T14:59:03.519Z,0.85
2019-05-12T15:01:51.507Z,1.55
2019-05-12T15:04:10.127Z,0.82
2019-05-12T15:06:44.361Z,1.37
2019-05-12T15:09:20.191Z,3.42
2019-05-12T15:11:49.827Z,1.20
2019-05-12T15:14:24.537Z,1.60
2019-05-12T15:16:56.915Z,2.10
2019-05-12T15:19:29.994Z,1.90
2019-05-12T15:22:11.661Z,1.63
2019-05-12T15:24:40.594Z,0.97
2019-05-12T15:27:13.519Z,2.05
2019-05-12T15:29:50.118Z,1.52
2019-05-12T15:32:21.440Z,1.00
2019-05-12T15:34:54.907Z,1.02
2019-05-12T15:37:29.066Z,2.62
2019-05-12T15:40:04.164Z,1.50
2019-05-12T15:42:36.118Z,2.10
2019-05-12T15:47:44.313Z,3.20
2019-05-12T15:50:16.406Z,2.25
2019-05-12T15:52:49.194Z,2.22
2019-05-12T15:55:25.170Z,1.53
2019-05-12T15:57:55.747Z,0.93
2019-05-12T16:00:28.740Z,3.62
2019-05-12T16:03:01.333Z,1.15
2019-05-12T16:05:33.951Z,1.52
2019-05-12T16:08:06.280Z,1.43
2019-05-12T16:10:38.943Z,1.00
2019-05-12T16:15:43.845Z,1.62
2019-05-12T16:18:17.159Z,0.82
2019-05-12T16:20:53.469Z,2.10
2019-05-12T16:23:30.096Z,2.37
2019-05-12T16:26:01.508Z,1.70
2019-05-12T16:28:35.706Z,0.80
2019-05-12T16:31:08.851Z,0.60
2019-05-12T16:33:43.565Z,1.00
2019-05-12T16:36:17.601Z,2.23
2019-05-12T16:38:55.387Z,1.53
2019-05-12T16:41:28.023Z,2.97
2019-05-12T16:43:58.406Z,0.53
2019-05-12T16:46:31.363Z,1.22
2019-05-12T16:49:04.411Z,1.63
2019-05-12T16:51:36.816Z,0.80
2019-05-12T16:54:09.224Z,3.70
2019-05-12T16:56:43.387Z,1.55
2019-05-12T16:59:21.755Z,0.77
2019-05-12T17:01:49.737Z,1.10
2019-05-12T17:04:23.846Z,1.92
2019-05-12T17:06:57.596Z,1.37
2019-05-12T17:09:29.991Z,0.73
2019-05-12T17:12:05.103Z,0.70
2019-05-12T17:14:47.964Z,1.23
2019-05-12T17:17:11.121Z,0.70
2019-05-12T17:19:43.773Z,0.60
2019-05-12T17:22:17.617Z,2.80
2019-05-12T17:24:50.122Z,3.40
2019-05-12T17:27:25.065Z,1.35
2019-05-12T17:29:56.986Z,1.17
2019-05-12T17:32:30.163Z,1.30
2019-05-12T17:35:04.152Z,0.70
2019-05-12T17:37:37.490Z,3.73
2019-05-12T17:40:15.575Z,1.23
2019-05-12T17:42:45.640Z,1.43
2019-05-12T17:45:20.661Z,1.47
2019-05-12T17:47:55.029Z,2.10
2019-05-12T17:50:28.251Z,1.00
2019-05-12T17:55:33.218Z,0.60
2019-05-12T17:58:05.362Z,1.67
2019-05-12T18:00:41.394Z,1.45
2019-05-12T18:03:21.231Z,1.20
2019-05-12T18:05:47.947Z,1.40
2019-05-12T18:08:24.180Z,2.70
2019-05-12T18:10:56.583Z,1.57
2019-05-12T18:13:29.832Z,0.90
2019-05-12T18:16:05.320Z,1.00
2019-05-12T18:18:38.216Z,1.93
2019-05-12T18:21:20.804Z,1.57
2019-05-12T18:23:46.476Z,1.90
2019-05-12T18:26:18.332Z,3.20
2019-05-12T18:28:50.899Z,1.10
2019-05-12T18:31:25.311Z,1.05
2019-05-12T18:33:58.755Z,0.95
2019-05-12T18:36:31.094Z,2.77
2019-05-12T18:39:11.277Z,1.67
2019-05-12T18:41:39.818Z,3.50
2019-05-12T18:44:15.946Z,4.30
2019-05-12T18:46:47.538Z,2.05
2019-05-12T18:49:19.904Z,2.50
2019-05-12T18:51:55.299Z,0.85
2019-05-12T18:54:27.526Z,1.77
2019-05-12T18:57:07.037Z,1.00
2019-05-12T18:59:34.261Z,1.20
2019-05-12T19:02:07.060Z,5.40
2019-05-12T19:04:41.222Z,2.00
2019-05-12T19:07:15.296Z,0.90
2019-05-12T19:09:48.586Z,1.50
2019-05-12T19:12:31.464Z,1.62
2019-05-12T19:14:56.038Z,0.75
2019-05-12T19:17:28.881Z,1.30
2019-05-12T19:20:01.714Z,1.30
2019-05-12T19:25:05.838Z,1.35
2019-05-12T19:27:39.843Z,1.45
2019-05-12T19:30:13.924Z,0.80
2019-05-12T19:32:51.600Z,0.82
2019-05-12T19:35:23.562Z,2.22
2019-05-12T19:37:56.586Z,2.02
2019-05-12T19:40:29.770Z,2.40
2019-05-12T19:43:08.191Z,1.70
2019-05-12T19:45:36.783Z,1.27
2019-05-12T19:48:22.857Z,2.20
2019-05-12T19:50:51.910Z,1.05
2019-05-12T19:53:19.298Z,1.17
2019-05-12T19:55:52.222Z,1.22
2019-05-12T19:58:24.495Z,1.32
2019-05-12T20:00:56.630Z,2.17
2019-05-12T20:03:28.945Z,2.27
2019-05-12T20:06:02.007Z,1.10
2019-05-12T20:11:05.669Z,2.85
2019-05-12T20:13:40.137Z,2.60
2019-05-12T20:16:21.338Z,1.85
2019-05-12T20:18:49.209Z,1.52
2019-05-12T20:21:26.007Z,1.55
2019-05-12T20:23:56.160Z,2.65
2019-05-12T20:26:33.030Z,1.27
2019-05-12T20:29:04.682Z,3.37
2019-05-12T20:31:43.489Z,2.27
2019-05-12T20:34:13.740Z,1.15
2019-05-12T20:36:46.733Z,1.20
2019-05-12T20:42:00.808Z,1.15
2019-05-12T20:44:29.792Z,3.20
2019-05-12T20:47:06.379Z,1.47
2019-05-12T20:49:37.190Z,0.80
2019-05-12T20:52:09.917Z,1.27
2019-05-12T20:54:44.146Z,1.32
2019-05-12T20:57:16.981Z,1.67
2019-05-12T20:59:49.265Z,1.45
2019-05-12T21:02:23.978Z,2.77
2019-05-12T21:05:01.047Z,2.35
2019-05-12T21:07:33.862Z,3.65
2019-05-12T21:10:06.634Z,2.83
2019-05-12T21:12:39.966Z,1.30
2019-05-12T21:15:20.138Z,2.25
2019-05-12T21:17:58.413Z,4.62
2019-05-12T21:20:24.389Z,5.47
2019-05-12T21:22:57.810Z,7.17
2019-05-12T21:25:30.408Z,7.92
2019-05-12T21:28:07.696Z,6.97
2019-05-12T21:30:42.495Z,4.37
2019-05-12T21:33:14.663Z,4.67
2019-05-12T21:35:47.893Z,4.75
2019-05-12T21:38:27.492Z,3.17
2019-05-12T21:40:55.250Z,4.22
2019-05-12T21:43:27.814Z,4.33
2019-05-12T21:46:01.164Z,3.72
2019-05-12T21:48:34.208Z,2.22
2019-05-12T21:51:09.646Z,2.00
2019-05-12T21:53:40.709Z,5.00
2019-05-12T21:56:13.959Z,3.20
2019-05-12T21:58:53.725Z,1.90
2019-05-12T22:01:28.139Z,3.20
2019-05-12T22:04:02.421Z,3.12
2019-05-12T22:06:36.304Z,1.50
2019-05-12T22:09:09.158Z,1.85
2019-05-12T22:11:50.595Z,2.27
2019-05-12T22:14:16.356Z,2.20
2019-05-12T22:16:51.067Z,2.45
2019-05-12T22:19:23.686Z,2.50
2019-05-12T22:21:56.021Z,3.85
2019-05-12T22:24:37.079Z,1.72
2019-05-12T22:27:05.091Z,4.62
2019-05-12T22:29:37.841Z,1.62
2019-05-12T22:32:10.705Z,3.15
2019-05-12T22:34:44.660Z,1.95
2019-05-12T22:37:17.362Z,1.65
2019-05-12T22:39:50.226Z,1.45
2019-05-12T22:42:24.353Z,2.40
2019-05-12T22:45:01.519Z,1.92
2019-05-12T22:47:33.454Z,1.10
2019-05-12T22:50:06.440Z,3.08
2019-05-12T22:52:44.014Z,1.98
2019-05-12T22:55:14.082Z,1.35
2019-05-12T22:57:46.983Z,2.45
2019-05-12T23:00:21.632Z,1.32
2019-05-12T23:02:54.764Z,2.37
2019-05-12T23:05:27.099Z,1.95
2019-05-12T23:08:00.023Z,1.50
2019-05-12T23:10:34.070Z,2.12
2019-05-12T23:13:06.141Z,1.27
2019-05-12T23:15:44.403Z,2.70
2019-05-12T23:18:13.932Z,1.57
2019-05-12T23:20:46.017Z,1.70
2019-05-12T23:23:19.023Z,1.37
2019-05-12T23:26:00.072Z,1.00
2019-05-12T23:28:25.861Z,1.45
2019-05-12T23:30:57.997Z,1.40
2019-05-12T23:33:36.554Z,1.07
2019-05-12T23:36:09.730Z,1.72
2019-05-12T23:38:40.242Z,2.12
2019-05-12T23:41:13.533Z,1.67
2019-05-12T23:43:46.927Z,2.50
2019-05-12T23:46:18.939Z,1.72
2019-05-12T23:48:51.162Z,1.93
2019-05-12T23:51:24.243Z,1.10
2019-05-12T23:53:56.191Z,2.67
2019-05-12T23:56:29.059Z,1.30
2019-05-12T23:59:04.327Z,2.42
